Time;durP1;ratioP1;P1;durP2;ratioP2;P2;SDS_P1;SDS_P2;PMS_P1;PMS_P2;Temp;Humidity;BMP_temperature;BMP_pressure;BME280_temperature;BME280_humidity;BME280_pressure;Samples;Min_cycle;Max_cycle;Signal;HPM_P1;HPM_P2
2021/08/13 00:00:49;;;;;;;8.60;6.35;;;;;;;;;;3541570;40;20368;-66
2021/08/13 00:03:17;;;;;;;13.95;5.75;;;;;;;;;;3541576;40;20070;-65
2021/08/13 00:05:43;;;;;;;9.32;5.40;;;;;;;;;;3540494;40;20042;-65
2021/08/13 00:08:09;;;;;;;8.52;5.63;;;;;;;;;;3541073;40;20161;-65
2021/08/13 00:10:35;;;;;;;8.50;5.82;;;;;;;;;;3541333;40;20061;-65
2021/08/13 00:13:01;;;;;;;8.23;5.40;;;;;;;;;;3541597;40;20038;-66
2021/08/13 00:15:27;;;;;;;10.02;5.55;;;;;;;;;;3541666;40;20615;-65
2021/08/13 00:17:53;;;;;;;8.93;5.82;;;;;;;;;;3541600;40;20071;-66
2021/08/13 00:20:20;;;;;;;12.40;6.32;;;;;;;;;;3541693;40;20482;-66
2021/08/13 00:22:46;;;;;;;9.48;5.70;;;;;;;;;;3541224;40;20057;-66
2021/08/13 00:25:12;;;;;;;11.80;5.78;;;;;;;;;;3541656;40;20034;-65
2021/08/13 00:27:38;;;;;;;10.48;5.78;;;;;;;;;;3541052;40;20045;-65
2021/08/13 00:30:04;;;;;;;9.50;5.32;;;;;;;;;;3541371;40;20030;-65
2021/08/13 00:32:30;;;;;;;8.82;5.40;;;;;;;;;;3548743;40;20117;-66
2021/08/13 00:34:56;;;;;;;8.93;5.80;;;;;;;;;;3548791;40;20061;-65
2021/08/13 00:37:23;;;;;;;9.02;5.78;;;;;;;;;;3548919;40;20042;-66
2021/08/13 00:39:50;;;;;;;10.52;6.13;;;;;;;;;;3540503;40;20071;-66
2021/08/13 00:42:16;;;;;;;8.40;5.53;;;;;;;;;;3540996;40;20202;-66
2021/08/13 00:44:46;;;;;;;9.18;5.60;;;;;;;;;;3540701;40;20035;-65
2021/08/13 00:47:13;;;;;;;7.65;5.40;;;;;;;;;;3547932;40;20058;-66
2021/08/13 00:49:58;;;;;;;10.02;6.10;;;;;;;;;;3548767;40;20042;-66
2021/08/13 00:52:32;;;;;;;12.05;5.93;;;;;;;;;;3548095;40;20769;-66
2021/08/13 00:54:58;;;;;;;11.95;6.25;;;;;;;;;;3548929;40;20042;-66
2021/08/13 00:57:38;;;;;;;10.10;6.32;;;;;;;;;;3547994;40;20324;-66
2021/08/13 01:00:19;;;;;;;11.95;6.45;;;;;;;;;;3541451;40;20046;-66
2021/08/13 01:02:50;;;;;;;10.55;6.30;;;;;;;;;;3548082;40;20035;-66
2021/08/13 01:05:17;;;;;;;14.57;6.47;;;;;;;;;;3538391;40;20412;-66
2021/08/13 01:07:43;;;;;;;11.18;6.65;;;;;;;;;;3539901;40;20045;-66
2021/08/13 01:10:10;;;;;;;8.30;5.63;;;;;;;;;;3540052;40;20086;-66
2021/08/13 01:12:49;;;;;;;11.20;6.82;;;;;;;;;;3541641;40;20042;-66
2021/08/13 01:15:16;;;;;;;8.05;6.22;;;;;;;;;;3536073;40;20041;-66
2021/08/13 01:17:44;;;;;;;8.88;6.45;;;;;;;;;;3539176;40;20030;-66
2021/08/13 01:20:12;;;;;;;9.85;6.50;;;;;;;;;;3538547;40;20621;-65
2021/08/13 01:22:39;;;;;;;10.02;6.38;;;;;;;;;;3540008;40;20031;-66
2021/08/13 01:25:06;;;;;;;11.00;5.68;;;;;;;;;;3540173;40;20665;-66
2021/08/13 01:27:35;;;;;;;8.35;5.88;;;;;;;;;;3547642;40;20042;-66
2021/08/13 01:30:04;;;;;;;7.40;5.47;;;;;;;;;;3547772;40;20026;-65
2021/08/13 01:32:43;;;;;;;11.63;6.03;;;;;;;;;;3548048;40;20038;-66
2021/08/13 01:35:13;;;;;;;12.48;6.03;;;;;;;;;;3547232;40;20034;-65
2021/08/13 01:37:39;;;;;;;9.65;6.45;;;;;;;;;;3540629;40;20089;-66
2021/08/13 01:40:07;;;;;;;8.85;6.32;;;;;;;;;;3538904;40;20074;-66
2021/08/13 01:42:35;;;;;;;12.50;6.00;;;;;;;;;;3539876;40;20023;-66
2021/08/13 01:45:03;;;;;;;9.82;6.43;;;;;;;;;;3547639;40;20034;-66
2021/08/13 01:47:29;;;;;;;13.13;6.22;;;;;;;;;;3539278;40;20042;-65
2021/08/13 01:49:56;;;;;;;8.25;5.88;;;;;;;;;;3547443;40;20401;-66
2021/08/13 01:52:22;;;;;;;8.48;6.40;;;;;;;;;;3547068;40;20042;-66
2021/08/13 01:54:49;;;;;;;12.27;7.20;;;;;;;;;;3547577;40;20944;-65
2021/08/13 01:57:15;;;;;;;14.65;7.13;;;;;;;;;;3540456;40;20720;-65
2021/08/13 01:59:43;;;;;;;11.18;6.55;;;;;;;;;;3547355;40;20034;-65
2021/08/13 02:02:09;;;;;;;13.75;6.22;;;;;;;;;;3547608;40;20586;-65
2021/08/13 02:04:39;;;;;;;9.45;6.00;;;;;;;;;;3545657;40;20038;-65
2021/08/13 02:07:07;;;;;;;9.38;6.40;;;;;;;;;;3539314;40;20054;-65
2021/08/13 02:09:33;;;;;;;9.80;6.40;;;;;;;;;;3538700;40;20832;-65
2021/08/13 02:11:59;;;;;;;10.75;6.00;;;;;;;;;;3538997;40;20046;-66
2021/08/13 02:14:29;;;;;;;12.25;6.32;;;;;;;;;;3547250;40;20594;-65
2021/08/13 02:16:57;;;;;;;9.48;6.88;;;;;;;;;;3547059;40;20058;-66
2021/08/13 02:19:30;;;;;;;8.98;6.22;;;;;;;;;;3547114;40;20037;-65
2021/08/13 02:21:56;;;;;;;11.18;6.25;;;;;;;;;;3538815;40;20063;-65
2021/08/13 02:24:22;;;;;;;11.10;6.32;;;;;;;;;;3539337;40;20094;-65
2021/08/13 02:26:57;;;;;;;10.65;6.22;;;;;;;;;;3538890;40;20393;-66
2021/08/13 02:29:23;;;;;;;8.35;6.13;;;;;;;;;;3539387;40;20256;-66
2021/08/13 02:31:53;;;;;;;15.23;6.38;;;;;;;;;;3548413;40;20034;-66
2021/08/13 02:34:19;;;;;;;11.27;6.25;;;;;;;;;;3547945;40;20034;-66
2021/08/13 02:36:45;;;;;;;9.45;6.53;;;;;;;;;;3540188;40;20046;-65
2021/08/13 02:39:11;;;;;;;11.07;6.68;;;;;;;;;;3539932;40;20033;-66
2021/08/13 02:41:40;;;;;;;12.07;6.32;;;;;;;;;;3538988;40;20049;-66
2021/08/13 02:44:07;;;;;;;11.35;7.22;;;;;;;;;;3540454;40;20039;-66
2021/08/13 02:46:33;;;;;;;10.55;6.03;;;;;;;;;;3546293;40;20116;-66
2021/08/13 02:49:01;;;;;;;9.73;7.05;;;;;;;;;;3539482;40;20649;-65
2021/08/13 02:51:27;;;;;;;12.68;7.00;;;;;;;;;;3547442;40;20078;-66
2021/08/13 02:53:54;;;;;;;8.23;6.38;;;;;;;;;;3539353;40;20041;-66
2021/08/13 02:56:20;;;;;;;8.70;6.15;;;;;;;;;;3539845;40;20235;-66
2021/08/13 02:58:46;;;;;;;12.35;6.78;;;;;;;;;;3538987;40;20286;-65
2021/08/13 03:01:12;;;;;;;14.68;6.60;;;;;;;;;;3539681;40;20037;-65
2021/08/13 03:03:38;;;;;;;9.52;6.72;;;;;;;;;;3547329;40;20460;-65
2021/08/13 03:06:05;;;;;;;9.43;6.45;;;;;;;;;;3547941;40;20184;-65
2021/08/13 03:08:32;;;;;;;9.98;6.85;;;;;;;;;;3539995;40;20046;-65
2021/08/13 03:10:58;;;;;;;9.05;6.35;;;;;;;;;;3547915;40;20026;-66
2021/08/13 03:13:25;;;;;;;10.75;6.30;;;;;;;;;;3548075;40;20128;-66
2021/08/13 03:15:53;;;;;;;12.18;6.38;;;;;;;;;;3547094;40;20073;-65
2021/08/13 03:18:22;;;;;;;12.43;6.55;;;;;;;;;;3547906;40;20396;-65
2021/08/13 03:20:49;;;;;;;14.10;6.57;;;;;;;;;;3540081;40;20038;-65
2021/08/13 03:23:15;;;;;;;13.68;6.72;;;;;;;;;;3537954;40;20042;-65
2021/08/13 03:25:43;;;;;;;9.75;6.43;;;;;;;;;;3548025;40;20140;-66
2021/08/13 03:28:14;;;;;;;12.18;6.82;;;;;;;;;;3539786;40;20039;-66
2021/08/13 03:30:40;;;;;;;8.95;6.45;;;;;;;;;;3540907;40;20069;-65
2021/08/13 03:33:09;;;;;;;7.88;6.03;;;;;;;;;;3547308;40;20048;-66
2021/08/13 03:35:35;;;;;;;8.40;6.10;;;;;;;;;;3540954;40;20050;-65
2021/08/13 03:38:02;;;;;;;8.93;6.20;;;;;;;;;;3533523;40;20675;-66
2021/08/13 03:40:29;;;;;;;10.52;6.30;;;;;;;;;;3538773;40;20046;-65
2021/08/13 03:42:55;;;;;;;10.88;6.63;;;;;;;;;;3539426;40;20045;-63
2021/08/13 03:45:21;;;;;;;10.00;6.18;;;;;;;;;;3539260;40;20129;-64
2021/08/13 03:47:48;;;;;;;8.80;6.40;;;;;;;;;;3547867;40;20042;-64
2021/08/13 03:50:14;;;;;;;10.27;6.22;;;;;;;;;;3547875;40;20029;-64
2021/08/13 03:52:40;;;;;;;9.18;6.43;;;;;;;;;;3547767;40;20034;-63
2021/08/13 03:55:06;;;;;;;9.88;6.00;;;;;;;;;;3539814;40;20521;-67
2021/08/13 03:57:34;;;;;;;9.70;6.43;;;;;;;;;;3546720;40;20385;-66
2021/08/13 04:00:00;;;;;;;9.40;6.40;;;;;;;;;;3539820;40;20739;-67
2021/08/13 04:02:26;;;;;;;11.77;6.53;;;;;;;;;;3539536;40;20663;-67
2021/08/13 11:42:47;;;;;;;6.70;5.15;;;;;;;;;;3540667;40;20120;-67
2021/08/13 11:45:14;;;;;;;12.10;5.50;;;;;;;;;;3533582;40;20047;-68
2021/08/13 11:47:41;;;;;;;11.18;4.93;;;;;;;;;;3539163;40;20042;-68
2021/08/13 11:50:07;;;;;;;10.40;5.43;;;;;;;;;;3542149;40;20298;-68
2021/08/13 11:52:35;;;;;;;8.48;5.50;;;;;;;;;;3542095;40;20042;-68
2021/08/13 11:55:03;;;;;;;10.00;5.18;;;;;;;;;;3548597;40;20049;-67
2021/08/13 11:57:29;;;;;;;9.38;4.90;;;;;;;;;;3541318;40;20038;-67
2021/08/13 11:59:55;;;;;;;14.32;4.70;;;;;;;;;;3541131;40;20042;-67
2021/08/13 12:02:21;;;;;;;8.23;4.88;;;;;;;;;;3548807;40;20035;-67
2021/08/13 12:04:50;;;;;;;11.07;5.60;;;;;;;;;;3539779;40;20075;-68
2021/08/13 12:07:16;;;;;;;13.52;5.35;;;;;;;;;;3539874;40;20043;-67
2021/08/13 12:09:54;;;;;;;13.75;5.88;;;;;;;;;;3541382;40;20484;-69
2021/08/13 12:12:20;;;;;;;16.08;6.18;;;;;;;;;;3541733;40;20030;-67
2021/08/13 12:14:48;;;;;;;8.13;5.25;;;;;;;;;;3536482;40;20030;-67
2021/08/13 12:17:14;;;;;;;7.28;5.15;;;;;;;;;;3537309;40;20030;-67
2021/08/13 12:19:41;;;;;;;7.38;4.80;;;;;;;;;;3535245;40;20190;-67
2021/08/13 12:22:07;;;;;;;8.32;5.38;;;;;;;;;;3539868;40;20036;-67
2021/08/13 12:24:33;;;;;;;13.82;5.13;;;;;;;;;;3540272;40;20027;-68
2021/08/13 12:27:01;;;;;;;11.73;4.72;;;;;;;;;;3539527;40;20054;-67
2021/08/13 12:29:27;;;;;;;12.38;5.55;;;;;;;;;;3540401;40;20414;-68
2021/08/13 12:31:54;;;;;;;11.60;5.47;;;;;;;;;;3549125;40;20333;-67
2021/08/13 12:34:20;;;;;;;9.00;5.32;;;;;;;;;;3540624;40;20049;-67
2021/08/13 12:36:47;;;;;;;9.35;4.97;;;;;;;;;;3539979;40;20078;-67
2021/08/13 12:39:13;;;;;;;20.52;5.28;;;;;;;;;;3549168;40;20038;-67
2021/08/13 12:41:39;;;;;;;8.15;5.10;;;;;;;;;;3542475;40;20454;-67
2021/08/13 12:44:04;;;;;;;11.13;5.30;;;;;;;;;;3541235;40;20082;-67
2021/08/13 12:46:31;;;;;;;7.45;4.80;;;;;;;;;;3537614;40;20455;-67
2021/08/13 12:48:58;;;;;;;8.15;5.45;;;;;;;;;;3538074;40;20047;-67
2021/08/13 12:51:25;;;;;;;10.07;5.55;;;;;;;;;;3540222;40;20022;-67
2021/08/13 12:53:51;;;;;;;7.30;5.65;;;;;;;;;;3541030;40;20327;-66
2021/08/13 12:56:18;;;;;;;7.35;5.40;;;;;;;;;;3539849;40;20097;-66
2021/08/13 12:58:45;;;;;;;7.78;5.32;;;;;;;;;;3540816;40;20101;-67
2021/08/13 13:01:13;;;;;;;10.93;5.55;;;;;;;;;;3541272;40;20014;-60
2021/08/13 13:03:39;;;;;;;10.25;5.55;;;;;;;;;;3541464;40;20034;-60
2021/08/13 13:06:06;;;;;;;8.80;4.90;;;;;;;;;;3538963;40;20023;-60
2021/08/13 13:08:33;;;;;;;9.65;5.38;;;;;;;;;;3538805;40;20391;-60
2021/08/13 13:10:58;;;;;;;8.95;5.60;;;32.80;93.70;;;;;;3541194;40;20208;-60
2021/08/13 13:13:25;;;;;;;7.70;5.15;;;;;;;;;;3541468;40;20034;-60
2021/08/13 13:15:51;;;;;;;9.02;5.22;;;;;;;;;;3537042;40;20034;-60
2021/08/13 13:18:17;;;;;;;8.75;5.30;;;;;;;;;;3539219;40;20035;-60
2021/08/13 13:20:43;;;;;;;9.05;4.82;;;32.40;84.30;;;;;;3537279;40;20661;-60
2021/08/13 13:23:10;;;;;;;9.65;6.28;;;;;;;;;;3537522;40;20074;-60
2021/08/13 13:25:49;;;;;;;7.82;4.45;;;;;;;;;;3541294;40;20044;-60
2021/08/13 13:28:35;;;;;;;10.15;5.35;;;;;;;;;;3540556;40;20038;-60
2021/08/13 13:31:17;;;;;;;11.80;5.03;;;;;;;;;;3540445;40;20423;-60
2021/08/13 13:33:58;;;;;;;6.70;4.22;;;;;;;;;;3540714;40;20613;-60
2021/08/13 13:36:44;;;;;;;8.95;4.53;;;;;;;;;;3539466;40;20067;-60
2021/08/13 13:39:12;;;;;;;6.82;4.38;;;;;;;;;;3541060;40;20053;-60
2021/08/13 13:41:38;;;;;;;6.68;4.47;;;;;;;;;;3538179;40;20415;-60
2021/08/13 13:44:05;;;;;;;7.70;4.22;;;;;;;;;;3539725;40;20137;-60
2021/08/13 13:46:31;;;;;;;8.57;4.38;;;;;;;;;;3542796;40;20038;-61
2021/08/13 13:48:58;;;;;;;8.55;4.07;;;;;;;;;;3538318;40;20412;-60
2021/08/13 13:51:24;;;;;;;14.55;5.80;;;;;;;;;;3535665;40;20057;-60
2021/08/13 13:53:50;;;;;;;12.70;6.60;;;;;;;;;;3539979;40;20026;-60
2021/08/13 13:56:18;;;;;;;10.95;4.35;;;;;;;;;;3538010;40;20054;-60
2021/08/13 13:58:44;;;;;;;8.85;4.22;;;;;;;;;;3539713;40;20057;-60
2021/08/13 14:01:10;;;;;;;12.15;4.63;;;;;;;;;;3541209;40;20336;-61
2021/08/13 14:03:36;;;;;;;6.65;3.83;;;;;;;;;;3542210;40;20067;-60
2021/08/13 14:06:02;;;;;;;6.57;4.22;;;;;;;;;;3540752;40;20050;-60
2021/08/13 14:08:30;;;;;;;6.95;4.32;;;;;;;;;;3537942;40;20527;-60
2021/08/13 14:10:56;;;;;;;8.73;5.22;;;;;;;;;;3541131;40;20045;-60
2021/08/13 14:13:22;;;;;;;7.15;4.75;;;;;;;;;;3548356;40;20063;-60
2021/08/13 14:15:49;;;;;;;8.63;4.38;;;;;;;;;;3537073;40;20344;-60
2021/08/13 14:18:15;;;;;;;12.82;4.63;;;;;;;;;;3537773;40;20087;-61
2021/08/13 14:20:41;;;;;;;8.68;3.92;;;;;;;;;;3539266;40;20054;-60
2021/08/13 14:23:07;;;;;;;10.38;4.55;;;;;;;;;;3542181;40;20026;-60
2021/08/13 14:25:37;;;;;;;15.13;5.25;;;;;;;;;;3541114;40;20050;-60
2021/08/13 14:28:03;;;;;;;6.82;4.70;;;;;;;;;;3537237;40;20042;-60
2021/08/13 14:30:31;;;;;;;8.75;4.38;;;;;;;;;;3539670;40;20120;-60
2021/08/13 14:32:57;;;;;;;5.72;3.95;;;;;;;;;;3541795;40;20042;-60
2021/08/13 14:35:24;;;;;;;5.55;4.20;;;;;;;;;;3540403;40;20034;-61
2021/08/13 14:37:50;;;;;;;8.30;4.35;;;;;;;;;;3542171;40;20038;-60
2021/08/13 14:40:17;;;;;;;9.00;4.90;;;;;;;;;;3548869;40;20046;-60
2021/08/13 14:42:45;;;;;;;8.57;4.28;;;;;;;;;;3540751;40;20054;-60
2021/08/13 14:45:16;;;;;;;11.35;4.82;;;;;;;;;;3539363;40;20415;-60
2021/08/13 14:47:42;;;;;;;7.68;5.10;;;;;;;;;;3538872;40;20038;-60
2021/08/13 14:50:08;;;;;;;6.53;4.43;;;;;;;;;;3540456;40;20845;-60
2021/08/13 14:52:35;;;;;;;7.32;4.53;;;;;;;;;;3540408;40;20034;-60
2021/08/13 14:55:03;;;;;;;10.75;5.07;;;;;;;;;;3540312;40;20037;-60
2021/08/13 14:57:30;;;;;;;12.43;4.95;;;;;;;;;;3537773;40;20085;-60
2021/08/13 14:59:57;;;;;;;8.35;4.63;;;;;;;;;;3540161;40;20035;-59
2021/08/13 15:02:23;;;;;;;7.13;4.40;;;;;;;;;;3536728;40;20030;-60
2021/08/13 15:04:49;;;;;;;7.90;4.60;;;;;;;;;;3538025;40;20042;-60
2021/08/13 15:07:15;;;;;;;7.72;4.53;;;;;;;;;;3540413;40;20026;-60
2021/08/13 15:09:42;;;;;;;9.20;4.43;;;;;;;;;;3536750;40;20439;-60
2021/08/13 15:12:08;;;;;;;8.32;4.78;;;;;;;;;;3538020;40;20071;-60
2021/08/13 15:14:34;;;;;;;10.48;4.75;;;;;;;;;;3540481;40;20039;-60
2021/08/13 15:17:00;;;;;;;7.53;4.75;;;;;;;;;;3540522;40;20045;-60
2021/08/13 15:19:26;;;;;;;8.88;4.82;;;;;;;;;;3536757;40;20042;-60
2021/08/13 15:21:52;;;;;;;8.13;4.50;;;;;;;;;;3548078;40;20049;-60
2021/08/13 15:24:18;;;;;;;6.25;4.20;;;;;;;;;;3540023;40;20050;-60
2021/08/13 15:26:44;;;;;;;9.48;6.18;;;;;;;;;;3540944;40;20046;-60
2021/08/13 15:29:10;;;;;;;12.57;5.43;;;;;;;;;;3540545;40;20035;-60
2021/08/13 15:31:36;;;;;;;7.00;5.20;;;;;;;;;;3540735;40;20123;-60
2021/08/13 15:34:02;;;;;;;9.43;4.90;;;;;;;;;;3540412;40;20042;-60
2021/08/13 15:36:28;;;;;;;13.73;4.78;;;;;;;;;;3540190;40;20343;-60
2021/08/13 15:38:54;;;;;;;7.45;4.57;;;;;;;;;;3539873;40;20041;-60
2021/08/13 15:41:20;;;;;;;6.63;4.50;;;;;;;;;;3540780;40;20029;-60
2021/08/13 15:43:46;;;;;;;6.93;4.85;;;;;;;;;;3541511;40;20048;-60
2021/08/13 15:46:12;;;;;;;11.45;6.50;;;;;;;;;;3541334;40;20050;-60
2021/08/13 15:48:38;;;;;;;9.73;5.32;;;;;;;;;;3541122;40;20043;-60
2021/08/13 15:51:04;;;;;;;9.40;5.18;;;;;;;;;;3541464;40;20399;-60
2021/08/13 15:53:30;;;;;;;7.60;4.88;;;;;;;;;;3541527;40;20446;-60
2021/08/13 15:55:56;;;;;;;10.23;6.03;;;;;;;;;;3541132;40;20027;-60
2021/08/13 15:58:22;;;;;;;11.27;6.57;;;;;;;;;;3541672;40;20052;-60
2021/08/13 16:00:48;;;;;;;12.10;5.40;;;;;;;;;;3540425;40;20125;-60
2021/08/13 16:03:14;;;;;;;8.10;4.68;;;;;;;;;;3541520;40;20023;-60
2021/08/13 16:05:40;;;;;;;8.82;4.63;;;;;;;;;;3541539;40;20050;-60
2021/08/13 16:08:06;;;;;;;7.10;4.70;;;;;;;;;;3540246;40;20075;-60
2021/08/13 16:10:32;;;;;;;6.40;4.55;;;;;;;;;;3539794;40;20041;-60
2021/08/13 16:12:58;;;;;;;6.60;4.32;;;;;;;;;;3541199;40;20045;-60
2021/08/13 16:15:24;;;;;;;9.25;5.00;;;;;;;;;;3541485;40;20502;-60
2021/08/13 16:17:51;;;;;;;11.88;5.03;;;;;;;;;;3541040;40;20984;-60
2021/08/13 16:20:17;;;;;;;7.70;4.68;;;;;;;;;;3540268;40;20019;-60
2021/08/13 16:22:44;;;;;;;9.27;4.82;;;;;;;;;;3542079;40;20035;-60
2021/08/13 16:25:10;;;;;;;8.60;4.97;;;;;;;;;;3543049;40;20105;-60
2021/08/13 16:27:36;;;;;;;7.50;5.07;;;;;;;;;;3541229;40;20042;-60
2021/08/13 16:30:02;;;;;;;10.85;4.97;;;;;;;;;;3540253;40;20023;-60
2021/08/13 16:32:28;;;;;;;7.00;4.60;;;;;;;;;;3541653;40;20062;-60
2021/08/13 16:34:54;;;;;;;8.88;5.20;;;;;;;;;;3542461;40;20033;-60
2021/08/13 16:37:20;;;;;;;7.53;5.13;;;;;;;;;;3542819;40;20042;-60
2021/08/13 16:39:46;;;;;;;6.70;4.53;;;;;;;;;;3542462;40;20108;-60
2021/08/13 16:42:12;;;;;;;10.77;5.22;;;;;;;;;;3541320;40;20038;-59
2021/08/13 16:44:38;;;;;;;8.13;4.68;;;;;;;;;;3542624;40;20044;-59
2021/08/13 16:47:04;;;;;;;10.80;5.13;;;;;;;;;;3542230;40;20127;-59
2021/08/13 16:49:30;;;;;;;9.35;5.13;;;;;;;;;;3541924;40;20053;-59
2021/08/13 16:51:56;;;;;;;6.57;4.75;;;;;;;;;;3542577;40;20026;-59
2021/08/13 16:54:22;;;;;;;6.18;4.70;;;;;;;;;;3537770;40;20041;-60
2021/08/13 16:56:48;;;;;;;6.80;4.55;;;;;;;;;;3542396;40;20034;-59
2021/08/13 16:59:14;;;;;;;8.93;4.85;;;;;;;;;;3539318;40;20062;-59
2021/08/13 17:01:40;;;;;;;7.53;4.78;;;;;;;;;;3542621;40;20034;-59
2021/08/13 17:04:06;;;;;;;8.30;5.57;;;;;;;;;;3542723;40;20150;-59
2021/08/13 17:06:32;;;;;;;6.82;4.65;;;;;;;;;;3543038;40;20463;-59
2021/08/13 17:08:58;;;;;;;10.25;5.55;;;;;;;;;;3542698;40;20728;-59
2021/08/13 17:11:25;;;;;;;6.82;4.63;;;;;;;;;;3542362;40;20121;-59
2021/08/13 17:13:51;;;;;;;6.05;4.57;;;;;;;;;;3542696;40;20034;-59
2021/08/13 17:16:17;;;;;;;6.97;5.05;;;;;;;;;;3542591;40;20034;-59
2021/08/13 17:18:43;;;;;;;7.95;5.28;;;;;;;;;;3541944;40;20043;-59
2021/08/13 17:21:10;;;;;;;7.57;5.63;;;;;;;;;;3542352;40;20120;-65
2021/08/13 17:23:36;;;;;;;7.45;5.15;;;;;;;;;;3542446;40;20404;-68
2021/08/13 17:26:02;;;;;;;8.15;5.00;;;;;;;;;;3541930;40;20121;-66
2021/08/13 17:28:28;;;;;;;10.02;6.28;;;;;;;;;;3541847;40;20027;-66
2021/08/13 17:30:54;;;;;;;19.52;9.45;;;;;;;;;;3541783;40;20050;-66
2021/08/13 17:33:20;;;;;;;13.77;8.50;;;;;;;;;;3541838;40;20682;-66
2021/08/13 17:35:46;;;;;;;14.57;10.27;;;;;;;;;;3542159;40;20394;-66
2021/08/13 17:38:12;;;;;;;13.93;8.65;;;;;;;;;;3542413;40;20047;-66
2021/08/13 17:40:38;;;;;;;12.18;6.80;;;;;;;;;;3541951;40;20713;-66
2021/08/13 17:43:04;;;;;;;10.95;6.40;;;;;;;;;;3542034;40;20128;-66
2021/08/13 17:45:29;;;;;;;11.20;6.40;;;;;;;;;;3541619;40;20038;-66
2021/08/13 17:47:56;;;;;;;14.35;6.20;;;;;;;;;;3542120;40;20047;-66
2021/08/13 17:50:22;;;;;;;7.88;5.90;;;;;;;;;;3542468;40;20030;-66
2021/08/13 17:52:48;;;;;;;11.63;5.65;;;;;;;;;;3542705;40;20125;-66
2021/08/13 17:55:14;;;;;;;9.10;5.75;;;;;;;;;;3541022;40;20034;-66
2021/08/13 17:57:40;;;;;;;9.88;5.32;;;;;;;;;;3542414;40;20042;-66
2021/08/13 18:00:06;;;;;;;10.40;6.10;;;;;;;;;;3542558;40;20117;-66
2021/08/13 18:02:32;;;;;;;16.90;8.55;;;;;;;;;;3541940;40;20086;-66
2021/08/13 18:04:58;;;;;;;17.35;9.18;;;;;;;;;;3541205;40;20042;-66
2021/08/13 18:07:24;;;;;;;24.52;13.15;;;;;;;;;;3541994;40;20034;-66
2021/08/13 18:09:50;;;;;;;14.30;9.15;;;;;;;;;;3541668;40;20044;-66
2021/08/13 18:12:17;;;;;;;11.63;7.13;;;;;;;;;;3542237;40;20027;-66
2021/08/13 18:14:43;;;;;;;16.17;7.88;;;;;;;;;;3541690;40;20037;-65
2021/08/13 18:17:09;;;;;;;26.88;15.55;;;;;;;;;;3541910;40;20063;-66
2021/08/13 18:19:35;;;;;;;17.83;9.25;;;;;;;;;;3541137;40;20037;-59
2021/08/13 18:22:01;;;;;;;12.50;6.45;;;;;;;;;;3548016;40;20674;-59
2021/08/13 18:24:27;;;;;;;10.57;6.28;;;;;;;;;;3541526;40;20026;-59
2021/08/13 18:26:53;;;;;;;15.05;7.35;;;;;;;;;;3542304;40;20465;-59
2021/08/13 18:29:19;;;;;;;12.00;7.07;;;;;;;;;;3541626;40;20026;-59
2021/08/13 18:31:45;;;;;;;12.05;6.53;;;;;;;;;;3539522;40;20038;-59
2021/08/13 18:34:11;;;;;;;11.07;6.20;;;;;;;;;;3541462;40;20124;-59
2021/08/13 18:36:37;;;;;;;14.63;7.72;;;;;;;;;;3541762;40;20429;-59
2021/08/13 18:39:03;;;;;;;12.40;6.68;;;;;;;;;;3541322;40;20090;-59
2021/08/13 18:41:29;;;;;;;12.57;7.18;;;;;;;;;;3539369;40;20486;-59
2021/08/13 18:43:55;;;;;;;12.10;6.63;;;;;;;;;;3541741;40;20042;-59
2021/08/13 18:46:21;;;;;;;25.17;8.48;;;;;;;;;;3540606;40;20075;-59
2021/08/13 18:48:46;;;;;;;27.83;8.93;;;;;;;;;;3541290;40;20691;-59
2021/08/13 18:51:13;;;;;;;29.80;8.95;;;;;;;;;;3541147;40;20577;-59
2021/08/13 18:53:39;;;;;;;45.35;11.10;;;;;;;;;;3540530;40;20629;-59
2021/08/13 18:56:05;;;;;;;42.03;10.57;;;;;;;;;;3539963;40;20038;-59
2021/08/13 18:58:31;;;;;;;31.45;10.45;;;;;;;;;;3540104;40;20048;-59
2021/08/13 19:00:57;;;;;;;31.88;9.30;;;;;;;;;;3541017;40;20104;-59
2021/08/13 19:03:25;;;;;;;21.80;8.65;;;;;;;;;;3540783;40;20836;-59
2021/08/13 19:05:51;;;;;;;37.70;9.63;;;;;;;;;;3547455;40;20030;-59
2021/08/13 19:08:17;;;;;;;60.00;12.13;;;;;;;;;;3540908;40;20129;-59
2021/08/13 19:10:43;;;;;;;29.63;9.63;;;;;;;;;;3541376;40;20034;-59
2021/08/13 19:13:09;;;;;;;75.97;26.30;;;;;;;;;;3541235;40;20717;-59
2021/08/13 19:15:35;;;;;;;25.60;9.75;;;;;;;;;;3541037;40;20102;-59
2021/08/13 19:18:01;;;;;;;20.98;8.27;;;;;;;;;;3541190;40;20034;-59
2021/08/13 19:20:27;;;;;;;27.88;11.05;;;;;;;;;;3540936;40;20375;-59
2021/08/13 19:22:53;;;;;;;25.08;11.30;;;;;;;;;;3541323;40;20071;-58
2021/08/13 19:25:19;;;;;;;20.38;9.90;;;;;;;;;;3541495;40;20044;-59
2021/08/13 19:27:45;;;;;;;23.02;11.25;;;;;;;;;;3541489;40;20037;-59
2021/08/13 19:30:11;;;;;;;12.55;7.85;;;;;;;;;;3541236;40;20027;-59
2021/08/13 19:32:39;;;;;;;18.55;8.98;;;;;;;;;;3541889;40;20048;-59
2021/08/13 19:35:05;;;;;;;14.20;7.80;;;;;;;;;;3541329;40;20033;-59
2021/08/13 19:37:31;;;;;;;16.00;8.43;;;;;;;;;;3541058;40;20038;-59
2021/08/13 19:39:57;;;;;;;16.90;8.10;;;;;;;;;;3540739;40;20050;-59
2021/08/13 19:42:23;;;;;;;15.45;7.88;;;;;;;;;;3540765;40;20128;-59
2021/08/13 19:44:49;;;;;;;16.73;8.07;;;;;;;;;;3540692;40;20582;-59
2021/08/13 19:47:15;;;;;;;13.18;7.60;;;;;;;;;;3540861;40;20037;-59
2021/08/13 19:49:41;;;;;;;16.67;7.85;;;;;;;;;;3541301;40;20023;-59
2021/08/13 19:52:07;;;;;;;10.45;7.22;;;;;;;;;;3541288;40;20022;-59
2021/08/13 19:54:35;;;;;;;14.50;7.82;;;;;;;;;;3540958;40;20132;-59
2021/08/13 19:57:00;;;;;;;12.82;7.25;;;;;;;;;;3541239;40;20022;-65
2021/08/13 19:59:26;;;;;;;16.83;7.50;;;;;;;;;;3542812;40;20156;-65
2021/08/13 20:01:53;;;;;;;16.50;8.38;;;;;;;;;;3542517;40;20089;-65
2021/08/13 20:04:20;;;;;;;10.95;7.07;;;;;;;;;;3542300;40;20066;-65
2021/08/13 20:06:46;;;;;;;12.07;7.82;;;;;;;;;;3542710;40;20022;-65
2021/08/13 20:09:12;;;;;;;18.70;9.82;;;;;;;;;;3541447;40;20105;-65
2021/08/13 20:11:38;;;;;;;16.38;9.85;;;;;;;;;;3541912;40;20038;-66
2021/08/13 20:14:04;;;;;;;23.10;12.10;;;;;;;;;;3541819;40;20037;-65
2021/08/13 20:16:30;;;;;;;27.27;14.80;;;;;;;;;;3541381;40;20038;-68
2021/08/13 20:18:58;;;;;;;20.00;8.68;;;;;;;;;;3541461;40;20323;-65
2021/08/13 20:21:24;;;;;;;15.50;9.32;;;;;;;;;;3534744;40;20044;-65
2021/08/13 20:23:50;;;;;;;16.92;8.05;;;;;;;;;;3540863;40;20077;-66
2021/08/13 20:26:16;;;;;;;15.75;7.55;;;;;;;;;;3541255;40;20034;-66
2021/08/13 20:28:42;;;;;;;20.17;7.85;;;;;;;;;;3535895;40;20031;-66
2021/08/13 20:31:08;;;;;;;10.10;6.93;;;;;;;;;;3535988;40;20035;-66
2021/08/13 20:33:34;;;;;;;15.60;8.00;;;;;;;;;;3541372;40;20617;-65
2021/08/13 20:36:00;;;;;;;18.13;7.30;;;;;;;;;;3540777;40;20123;-66
2021/08/13 20:38:26;;;;;;;12.38;7.75;;;;;;;;;;3541684;40;20086;-65
2021/08/13 20:40:52;;;;;;;16.70;8.20;;;;;;;;;;3541873;40;20114;-66
2021/08/13 20:43:18;;;;;;;13.50;9.05;;;;;;;;;;3541316;40;20035;-66
2021/08/13 20:45:44;;;;;;;17.15;9.10;;;;;;;;;;3541766;40;20038;-66
2021/08/13 20:48:13;;;;;;;15.50;8.95;;;;;;;;;;3542332;40;20037;-66
2021/08/13 20:50:39;;;;;;;16.23;8.38;;;;;;;;;;3542675;40;20038;-59
2021/08/13 20:53:05;;;;;;;15.10;8.05;;;;;;;;;;3542599;40;20041;-60
2021/08/13 20:55:31;;;;;;;10.60;7.38;;;;;;;;;;3542342;40;20030;-59
2021/08/13 20:57:57;;;;;;;12.02;7.50;;;;;;;;;;3542176;40;20651;-59
2021/08/13 21:00:23;;;;;;;16.15;7.97;;;;;;;;;;3542365;40;20050;-59
2021/08/13 21:02:49;;;;;;;16.42;8.77;;;;;;;;;;3542261;40;20042;-60
2021/08/13 21:05:14;;;;;;;15.90;9.23;;;;;;;;;;3542117;40;20030;-59
2021/08/13 21:07:40;;;;;;;16.55;8.13;;;;;;;;;;3541954;40;20037;-59
2021/08/13 21:10:06;;;;;;;15.95;8.68;;;;;;;;;;3541809;40;20027;-59
2021/08/13 21:12:32;;;;;;;14.52;8.63;;;;;;;;;;3542256;40;20028;-59
2021/08/13 21:14:58;;;;;;;15.23;8.85;;;;;;;;;;3541552;40;20037;-59
2021/08/13 21:17:24;;;;;;;16.05;8.13;;;;;;;;;;3541995;40;20565;-59
2021/08/13 21:19:50;;;;;;;20.30;9.27;;;;;;;;;;3541813;40;20037;-59
2021/08/13 21:22:16;;;;;;;23.02;10.18;;;;;;;;;;3542019;40;20022;-59
2021/08/13 21:24:42;;;;;;;18.13;8.45;;;;;;;;;;3542215;40;20033;-59
2021/08/13 21:27:08;;;;;;;19.48;9.85;;;;;;;;;;3541496;40;20022;-60
2021/08/13 21:29:34;;;;;;;14.27;8.00;;;;;;;;;;3541493;40;20026;-59
2021/08/13 21:32:00;;;;;;;15.02;7.78;;;;;;;;;;3541717;40;20074;-59
2021/08/13 21:34:26;;;;;;;22.92;10.55;;;;;;;;;;3541950;40;20121;-60
2021/08/13 21:36:52;;;;;;;39.40;12.63;;;;;;;;;;3541710;40;20041;-59
2021/08/13 21:39:18;;;;;;;32.17;12.70;;;;;;;;;;3542379;40;20030;-59
2021/08/13 21:41:44;;;;;;;19.92;10.63;;;;;;;;;;3542446;40;20025;-59
2021/08/13 21:44:11;;;;;;;20.30;9.70;;;;;;;;;;3542276;40;20046;-59
2021/08/13 21:46:37;;;;;;;17.55;8.80;;;;;;;;;;3541531;40;20097;-59
2021/08/13 21:49:03;;;;;;;30.55;17.63;;;;;;;;;;3541349;40;20777;-59
2021/08/13 21:51:29;;;;;;;16.67;8.73;;;;;;;;;;3541175;40;20059;-59
2021/08/13 21:53:55;;;;;;;14.27;8.75;;;;;;;;;;3541641;40;20034;-59
2021/08/13 21:56:21;;;;;;;15.05;9.25;;;;;;;;;;3536671;40;20129;-59
2021/08/13 21:58:47;;;;;;;18.80;10.25;;;;;;;;;;3541416;40;20045;-61
2021/08/13 22:01:13;;;;;;;19.15;9.50;;;;;;;;;;3541854;40;20041;-59
2021/08/13 22:03:39;;;;;;;22.58;10.10;;;;;;;;;;3541237;40;20850;-59
2021/08/13 22:06:05;;;;;;;13.40;8.20;;;;;;;;;;3540258;40;20042;-59
2021/08/13 22:08:31;;;;;;;13.82;8.38;;;;;;;;;;3539261;40;20034;-59